Central Oregon RPC :: JUNTURA A

liberation: 2021-08-28  07:00     latitude: 43.744233     longitude: -118.077333 83 birds
# LOFT PRING MILES ARRIVAL SPEED ToWin
1 RUETER FAMILY LOFT AU21-CORP-887 159.534 2021-08-28 10:09:37.811 1480.668 00:00:00
2 RUETER FAMILY LOFT AU21-CORP-813 159.534 2021-08-28 10:09:41.559 1480.180 00:00:04
3 RUETER FAMILY LOFT AU21-CORP-839 159.534 2021-08-28 10:09:50.020 1479.081 00:00:12
4 RUETER FAMILY LOFT AU21-CORP-919 159.534 2021-08-28 10:10:04.971 1477.142 00:00:27
5 RUETER FAMILY LOFT AU21-CORP-807 159.534 2021-08-28 10:20:35.121 1399.800 00:10:57
6 RUETER FAMILY LOFT AU21-CORP-836 159.534 2021-08-28 10:20:37.979 1399.468 00:11:00
7 RUETER FAMILY LOFT AU21-CORP-868 159.534 2021-08-28 10:20:39.736 1399.263 00:11:02
8 RUETER FAMILY LOFT AU21-CORP-830 159.534 2021-08-28 10:20:58.189 1397.122 00:11:20
9 RUETER FAMILY LOFT AU21-CORP-881 159.534 2021-08-28 10:21:15.585 1395.109 00:11:38
10 STEELE LOFT AU21-CORP-0252 162.06 2021-08-28 10:26:14.968 1382.915 00:13:37
11 STEELE LOFT AU21-BORD-21056 162.06 2021-08-28 10:26:21.439 1382.192 00:13:43
12 STEELE LOFT AU21-CORP-0162 162.06 2021-08-28 10:27:09.945 1376.799 00:14:32
13 STEELE LOFT AU21-CORP-0159 162.06 2021-08-28 10:27:10.740 1376.711 00:14:33
14 STEELE LOFT AU21-CORP-0157 162.06 2021-08-28 10:27:12.893 1376.472 00:14:35
15 STEELE LOFT AU21-CORP-0164 162.06 2021-08-28 10:27:22.197 1375.443 00:14:44
16 STEELE LOFT AU21-CORP-0156 162.06 2021-08-28 10:27:22.691 1375.388 00:14:45
17 TOPIGEONUSA AU21-CORP-1009 161.026 2021-08-28 10:26:09.322 1374.719 00:14:45
18 TOPIGEONUSA AU21-CORP-1014 161.026 2021-08-28 10:26:13.759 1374.226 00:14:50
19 ROCKY TOP AU21-CORP-0751 152.796 2021-08-28 10:15:44.991 1373.803 00:14:08
20 TOPIGEONUSA AU21-CORP-1031 161.026 2021-08-28 10:26:17.657 1373.793 00:14:53
21 RUETER FAMILY LOFT AU21-CORP-923 159.534 2021-08-28 10:24:23.077 1373.779 00:14:45
22 AMERICAN LOFT AU21-CORP-0323 143.717 2021-08-28 10:04:08.323 1373.652 00:13:19
23 AMERICAN LOFT AU21-CORP-0344 143.717 2021-08-28 10:04:10.013 1373.442 00:13:20
24 ROCKY TOP AU21-CORP-0745 152.796 2021-08-28 10:15:48.818 1373.355 00:14:12
25 AMERICAN LOFT AU21-CORP-0366 143.717 2021-08-28 10:04:12.432 1373.141 00:13:23
26 ROCKY TOP AU21-CORP-0711 152.796 2021-08-28 10:15:51.189 1373.078 00:14:14
27 AMERICAN LOFT AU21-CORP-0310 143.717 2021-08-28 10:04:14.790 1372.848 00:13:25
28 AMERICAN LOFT AU21-CORP-0321 143.717 2021-08-28 10:04:15.385 1372.775 00:13:26
29 AMERICAN LOFT AU21-CORP-0315 143.717 2021-08-28 10:04:17.021 1372.571 00:13:27
30 TOPIGEONUSA AU21-CORP-1011 161.026 2021-08-28 10:26:29.247 1372.508 00:15:05
31 STEELE LOFT AU21-CORP-0158 162.06 2021-08-28 10:27:50.241 1372.350 00:15:12
32 STEELE LOFT AU21-CORP-0169 162.06 2021-08-28 10:27:57.441 1371.558 00:15:19
33 TOPIGEONUSA AU21-CORP-1020 161.026 2021-08-28 10:26:48.942 1370.330 00:15:25
34 ROCKY TOP AU21-CORP-0753 152.796 2021-08-28 10:16:17.658 1369.992 00:14:40
35 ROCKY TOP AU21-CORP-0724 152.796 2021-08-28 10:16:18.027 1369.950 00:14:41
36 AMERICAN LOFT AU21-CORP-0303 143.717 2021-08-28 10:06:55.145 1353.219 00:16:05
37 AMERICAN LOFT AU21-CORP-0313 143.717 2021-08-28 10:06:55.525 1353.173 00:16:06
38 AMERICAN LOFT AU21-CORP-0363 143.717 2021-08-28 10:07:01.792 1352.418 00:16:12
39 RUETER FAMILY LOFT AU21-CORP-828 159.534 2021-08-28 10:30:44.278 1332.362 00:21:06
40 RUETER FAMILY LOFT AU21-CORP-888 159.534 2021-08-28 10:30:54.909 1331.243 00:21:17
41 RUETER FAMILY LOFT AU21-CORP-815 159.534 2021-08-28 10:31:00.140 1330.693 00:21:22
42 RUETER FAMILY LOFT AU21-CORP-896 159.534 2021-08-28 10:31:39.474 1326.572 00:22:02
43 TOPIGEONUSA AU21-CORP-1042 161.026 2021-08-28 10:34:59.241 1318.244 00:23:35
44 AMERICAN LOFT AU21-CORP-0308 143.717 2021-08-28 10:14:41.833 1299.158 00:23:52
45 ROCKY TOP AU21-CORP-0761 152.796 2021-08-28 10:27:43.775 1294.576 00:26:06
46 ROCKY TOP AU21-CORP-0765 152.796 2021-08-28 10:27:57.703 1293.131 00:26:20
47 STEELE LOFT AU21-CORP-0125 162.06 2021-08-28 10:40:50.076 1291.580 00:28:12
48 TOPIGEONUSA AU21-CORP-1030 161.026 2021-08-28 10:39:28.612 1291.278 00:28:04
49 ROCKY TOP AU21-CORP-0763 152.796 2021-08-28 10:29:07.902 1285.896 00:27:31
50 TOPIGEONUSA AU21-CORP-1005 161.026 2021-08-28 10:41:00.238 1282.356 00:29:36
51 STEELE LOFT AU21-CORP-0128 162.06 2021-08-28 10:42:37.040 1281.237 00:29:59
52 ROCKY TOP AU21-CORP-0752 152.796 2021-08-28 10:31:54.176 1269.080 00:30:17
53 STEELE LOFT AU21-CORP-0165 162.06 2021-08-28 10:48:33.581 1247.926 00:35:56
54 AMERICAN LOFT AU21-CORP-0324 143.717 2021-08-28 10:23:33.846 1242.569 00:32:44
55 AMERICAN LOFT AU21-CORP-0336 143.717 2021-08-28 10:23:36.447 1242.305 00:32:47
56 ROCKY TOP AU21-CORP-0721 152.796 2021-08-28 10:36:31.015 1242.036 00:34:54
57 AMERICAN LOFT AU21-CORP-0335 143.717 2021-08-28 10:23:40.031 1241.940 00:32:50
58 AMERICAN LOFT AU21-CORP-0339 143.717 2021-08-28 10:23:42.890 1241.650 00:32:53
59 STEELE LOFT AU21-CORP-0172 162.06 2021-08-28 10:53:24.059 1222.041 00:40:46
60 whistling wings AU21-CORP-0941 161.025 2021-08-28 10:59:54.504 1181.298 00:48:30
61 whistling wings AU21-CORP-0253 161.025 2021-08-28 10:59:56.961 1181.096 00:48:33
62 whistling wings AU21-CORP-1109 161.025 2021-08-28 10:59:59.097 1180.921 00:48:35
63 ROCKY TOP AU21-CORP-0764 152.796 2021-08-28 10:54:53.017 1144.915 00:53:16
64 STEELE LOFT AU21-CORP-0106 162.06 2021-08-28 11:12:23.814 1130.067 00:59:46
65 AMERICAN LOFT AU21-CORP-0327 143.717 2021-08-28 10:45:26.007 1122.027 00:54:36
66 ROCKY TOP AU21-CORP-0755 152.796 2021-08-28 11:26:59.870 1007.206 01:25:23
67 TIM GRAVES AU21-CORP-0541 148.34 2021-08-28 11:40:29.521 930.785 01:44:10
68 TIM GRAVES AU21-CORP-0567 148.34 2021-08-28 12:47:25.970 751.448 02:51:07
69 ROCKY TOP AU21-CORP-0722 152.796 2021-08-28 15:52:36.142 504.920 05:50:59
70 ROCKY TOP AU21-CORP-0746 152.796 2021-08-28 17:56:35.543 409.572 07:54:58
71 TIM GRAVES AU21-CORP-0561 148.34 2021-08-29 06:51:59.495 305.882 11:17:12
72 TOPIGEONUSA AU21-CORP-1079 161.026 2021-08-30 08:27:17.463 156.795 26:56:05
73 TOPIGEONUSA AU21-CORP-1040 161.026 2021-08-30 08:27:18.378 156.794 26:56:06
ROCKY TOP AU21-CORP-0771 0 0000-00-00 00:00:00.000 0.000 00:00:00
RUETER FAMILY LOFT AU21-CORP-891 0 0000-00-00 00:00:00.000 0.000 00:00:00
STEELE LOFT AU21-CORP-0113 0 0000-00-00 00:00:00.000 0.000 00:00:00
TIM GRAVES AU21-CORP-0533 0 0000-00-00 00:00:00.000 0.000 00:00:00
TIM GRAVES AU21-CORP-0558 0 0000-00-00 00:00:00.000 0.000 00:00:00
TIM GRAVES AU21-CORP-0564 0 0000-00-00 00:00:00.000 0.000 00:00:00
TIM GRAVES AU21-CORP-0576 0 0000-00-00 00:00:00.000 0.000 00:00:00
TOPIGEONUSA AU21-CORP-1016 0 0000-00-00 00:00:00.000 0.000 00:00:00
whistling wings AU21-CORP-1105 0 0000-00-00 00:00:00.000 0.000 00:00:00
whistling wings AU21-CORP-1106 0 0000-00-00 00:00:00.000 0.000 00:00:00